createdAt,value
2022-11-19T00:03:32.708Z,25.80
2022-11-19T00:08:30.862Z,12.25
2022-11-19T00:13:29.012Z,16.02
2022-11-19T00:18:28.540Z,16.08
2022-11-19T00:23:26.723Z,15.98
2022-11-19T00:28:24.942Z,14.82
2022-11-19T00:33:23.085Z,69.70
2022-11-19T00:38:22.608Z,16.77
2022-11-19T00:43:34.618Z,16.85
2022-11-19T00:48:32.766Z,19.52
2022-11-19T00:53:32.460Z,22.42
2022-11-19T00:58:30.712Z,22.42
2022-11-19T01:03:29.072Z,22.17
2022-11-19T01:08:27.559Z,23.25
2022-11-19T01:13:36.435Z,24.33
2022-11-19T01:18:34.658Z,23.42
2022-11-19T01:23:33.487Z,23.92
2022-11-19T01:28:33.543Z,23.10
2022-11-19T01:33:31.739Z,23.15
2022-11-19T01:38:30.046Z,62.92
2022-11-19T01:43:42.387Z,24.42
2022-11-19T01:48:41.959Z,24.65
2022-11-19T01:53:40.485Z,21.30
2022-11-19T01:58:40.360Z,22.92
2022-11-19T02:03:40.752Z,22.63
2022-11-19T02:08:40.965Z,19.85
2022-11-19T02:13:41.208Z,24.50
2022-11-19T02:18:44.598Z,20.98
2022-11-19T02:24:03.402Z,21.98
2022-11-19T02:29:08.652Z,20.63
2022-11-19T02:34:10.627Z,19.70
2022-11-19T02:39:12.832Z,20.10
2022-11-19T02:44:41.393Z,17.42
2022-11-19T02:49:42.943Z,16.90
2022-11-19T02:54:41.117Z,16.33
2022-11-19T02:59:58.684Z,15.70
2022-11-19T03:04:58.655Z,14.90
2022-11-19T03:09:57.691Z,14.73
2022-11-19T03:15:13.991Z,13.60
2022-11-19T03:20:18.642Z,14.45
2022-11-19T03:25:19.687Z,13.02
2022-11-19T03:30:19.991Z,13.77
2022-11-19T03:35:21.778Z,13.70
2022-11-19T03:40:20.451Z,13.45
2022-11-19T03:45:20.450Z,13.05
2022-11-19T03:50:22.613Z,12.70
2022-11-19T03:55:22.467Z,12.02
2022-11-19T04:00:20.643Z,12.30
2022-11-19T04:05:20.167Z,11.45
2022-11-19T04:10:18.458Z,10.63
2022-11-19T04:15:16.813Z,10.77
2022-11-19T04:20:15.375Z,9.30
2022-11-19T04:25:14.908Z,10.20
2022-11-19T04:30:13.708Z,9.15
2022-11-19T04:35:12.490Z,9.27
2022-11-19T04:40:11.163Z,11.00
2022-11-19T04:45:11.663Z,10.70
2022-11-19T04:50:10.246Z,9.77
2022-11-19T04:55:08.652Z,9.98
2022-11-19T05:00:07.607Z,10.07
2022-11-19T05:05:07.914Z,9.93
2022-11-19T05:10:06.587Z,11.63
2022-11-19T05:15:05.083Z,12.02
2022-11-19T05:20:03.327Z,11.00
2022-11-19T05:25:02.976Z,11.85
2022-11-19T05:30:01.124Z,10.77
2022-11-19T05:34:59.295Z,11.60
2022-11-19T05:39:57.495Z,12.07
2022-11-19T05:44:57.033Z,12.38
2022-11-19T05:49:55.199Z,10.55
2022-11-19T05:54:53.375Z,9.73
2022-11-19T05:59:51.566Z,9.40
2022-11-19T06:04:51.092Z,8.90
2022-11-19T06:09:49.276Z,10.27
2022-11-19T06:14:47.452Z,11.70
2022-11-19T06:19:45.612Z,9.98
2022-11-19T06:24:45.144Z,10.18
2022-11-19T06:29:43.580Z,11.70
2022-11-19T06:34:41.755Z,12.60
2022-11-19T06:39:39.916Z,10.40
2022-11-19T06:44:39.427Z,9.93
2022-11-19T06:49:37.586Z,12.55
2022-11-19T06:54:38.844Z,10.60
2022-11-19T06:59:40.039Z,10.90
2022-11-19T07:04:38.445Z,8.80
2022-11-19T07:09:36.704Z,10.45
2022-11-19T07:14:35.796Z,10.52
2022-11-19T07:19:35.373Z,11.07
2022-11-19T07:24:33.664Z,11.30
2022-11-19T07:29:31.800Z,10.05
2022-11-19T07:34:29.954Z,8.98
2022-11-19T07:39:29.664Z,10.80
2022-11-19T09:41:53.258Z,8.43
2022-11-19T09:46:58.441Z,17.15
2022-11-19T09:51:59.015Z,5.78
2022-11-19T09:57:04.249Z,6.97
2022-11-19T10:02:02.845Z,9.25
2022-11-19T10:07:07.940Z,4.75
2022-11-19T10:12:20.292Z,6.28
2022-11-19T10:17:24.227Z,7.53
2022-11-19T10:22:23.954Z,6.35
2022-11-19T10:27:26.412Z,16.92
2022-11-19T10:32:28.734Z,6.20
2022-11-19T10:37:30.630Z,6.57
2022-11-19T10:42:31.899Z,6.47
2022-11-19T10:47:31.608Z,8.52
2022-11-19T10:52:31.268Z,7.47
2022-11-19T10:57:32.739Z,7.22
2022-11-19T11:02:33.875Z,5.97
2022-11-19T11:07:54.803Z,6.00
2022-11-19T11:13:12.285Z,5.15
2022-11-19T11:18:11.640Z,4.78
2022-11-19T11:23:11.243Z,7.47
2022-11-19T11:28:13.751Z,8.07
2022-11-19T11:33:32.860Z,6.78
2022-11-19T11:38:31.803Z,6.30
2022-11-19T11:43:32.095Z,6.70
2022-11-19T11:48:34.805Z,11.00
2022-11-19T11:53:33.746Z,5.35
2022-11-19T11:58:33.964Z,4.97
2022-11-19T12:03:36.318Z,4.20
2022-11-19T12:08:47.872Z,4.53
2022-11-19T12:13:56.531Z,5.35
2022-11-19T12:19:01.669Z,6.20
2022-11-19T12:24:06.627Z,4.70
2022-11-19T12:29:13.822Z,3.85
2022-11-19T12:34:35.879Z,4.53
2022-11-19T12:39:37.323Z,5.10
2022-11-19T12:44:40.633Z,5.70
2022-11-19T12:49:56.563Z,5.30
2022-11-19T12:54:59.464Z,7.55
2022-11-19T13:00:12.919Z,9.10
2022-11-19T13:05:14.076Z,5.97
2022-11-19T13:10:15.611Z,5.80
2022-11-19T13:15:19.159Z,8.93
2022-11-19T13:20:20.115Z,7.82
2022-11-19T13:25:21.578Z,13.43
2022-11-19T13:30:23.054Z,11.98
2022-11-19T13:35:22.533Z,6.45
2022-11-19T13:40:26.841Z,9.55
2022-11-19T13:45:27.405Z,24.50
2022-11-19T13:50:27.560Z,23.80
2022-11-19T13:55:33.650Z,13.27
2022-11-19T14:00:33.227Z,14.25
2022-11-19T14:05:45.298Z,21.48
2022-11-19T14:10:46.680Z,23.10
2022-11-19T14:16:07.567Z,23.42
2022-11-19T14:21:41.886Z,21.73
2022-11-19T14:26:58.644Z,75.50
2022-11-19T14:32:15.265Z,57.97
2022-11-19T14:37:19.035Z,55.63
2022-11-19T14:42:18.975Z,49.10
2022-11-19T14:47:33.830Z,24.65
2022-11-19T14:52:35.028Z,18.77
2022-11-19T14:57:34.185Z,16.80
2022-11-19T15:02:34.611Z,18.88
2022-11-19T15:07:38.628Z,28.30
2022-11-19T15:12:47.447Z,29.70
2022-11-19T15:17:46.728Z,18.88
2022-11-19T15:22:52.051Z,13.55
2022-11-19T15:27:54.566Z,32.45
2022-11-19T15:33:10.742Z,26.63
2022-11-19T15:38:15.540Z,23.90
2022-11-19T15:43:23.711Z,20.63
2022-11-19T15:48:25.015Z,29.73
2022-11-19T15:53:25.148Z,26.83
2022-11-19T15:58:26.024Z,44.90
2022-11-19T16:03:24.591Z,55.00
2022-11-19T16:08:24.268Z,44.35
2022-11-19T16:13:41.312Z,22.10
2022-11-19T16:18:46.367Z,22.75
2022-11-19T16:23:59.893Z,19.85
2022-11-19T16:28:58.149Z,15.50
2022-11-19T16:33:56.467Z,18.00
2022-11-19T16:38:56.885Z,46.70
2022-11-19T16:43:55.240Z,35.88
2022-11-19T16:48:55.031Z,18.73
2022-11-19T16:53:53.389Z,25.85
2022-11-19T16:58:59.048Z,25.63
2022-11-19T17:04:03.939Z,29.02
2022-11-19T17:14:05.166Z,22.20
2022-11-19T17:19:14.077Z,27.63
2022-11-19T17:24:13.691Z,24.85
2022-11-19T17:29:20.528Z,18.73
2022-11-19T17:34:28.174Z,18.17
2022-11-19T17:39:26.684Z,18.48
2022-11-19T17:44:34.803Z,19.13
2022-11-19T17:49:33.259Z,16.48
2022-11-19T17:54:31.887Z,17.95
2022-11-19T17:59:31.569Z,11.13
2022-11-19T18:04:30.071Z,16.67
2022-11-19T18:09:33.645Z,19.88
2022-11-19T18:14:34.507Z,17.25
2022-11-19T18:19:33.761Z,15.10
2022-11-19T18:24:31.967Z,13.48
2022-11-19T18:29:31.103Z,11.38
2022-11-19T18:34:30.745Z,15.10
2022-11-19T18:39:29.229Z,16.73
2022-11-19T18:44:34.936Z,18.13
2022-11-19T18:49:35.242Z,14.15
2022-11-19T18:54:33.792Z,15.38
2022-11-19T18:59:32.032Z,8.80
2022-11-19T19:04:30.367Z,12.70
2022-11-19T19:09:30.003Z,11.25
2022-11-19T19:14:28.238Z,23.15
2022-11-19T19:19:26.726Z,32.78
2022-11-19T19:24:25.540Z,11.52
2022-11-19T19:29:25.408Z,11.18
2022-11-19T19:34:23.852Z,14.00
2022-11-19T19:39:22.406Z,11.32
2022-11-19T19:44:20.669Z,7.53
2022-11-19T19:49:20.496Z,14.10
2022-11-19T19:54:18.959Z,11.80
2022-11-19T19:59:17.292Z,14.00
2022-11-19T20:04:15.583Z,11.57
2022-11-19T20:09:15.299Z,12.63
2022-11-19T20:14:13.627Z,18.13
2022-11-19T20:19:13.931Z,12.38
2022-11-19T20:24:13.721Z,11.85
2022-11-19T20:29:14.625Z,18.90
2022-11-19T20:34:13.142Z,13.15
2022-11-19T20:39:11.421Z,15.02
2022-11-19T20:44:23.516Z,15.95
2022-11-19T20:49:24.165Z,14.25
2022-11-19T20:54:23.025Z,11.88
2022-11-19T20:59:21.916Z,11.60
2022-11-19T21:04:20.514Z,11.30
2022-11-19T21:09:20.603Z,11.75
2022-11-19T21:14:18.998Z,11.98
2022-11-19T21:19:17.262Z,10.57
2022-11-19T21:24:15.526Z,10.93
2022-11-19T21:29:15.134Z,11.25
2022-11-19T21:34:14.466Z,11.07
2022-11-19T21:39:13.945Z,12.52
2022-11-19T21:44:15.471Z,12.20
2022-11-19T21:49:19.574Z,12.15
2022-11-19T21:54:18.949Z,13.07
2022-11-19T21:59:17.547Z,12.98
2022-11-19T22:04:16.046Z,11.95
2022-11-19T22:09:15.711Z,15.07
2022-11-19T22:14:13.995Z,16.20
2022-11-19T22:19:12.309Z,15.02
2022-11-19T22:24:10.680Z,13.73
2022-11-19T22:29:10.358Z,14.52
2022-11-19T22:34:08.608Z,15.45
2022-11-19T22:39:06.822Z,14.35
2022-11-19T22:44:05.903Z,22.52
2022-11-19T22:49:05.555Z,15.25
2022-11-19T22:54:03.975Z,16.17
2022-11-19T22:59:02.236Z,17.10
2022-11-19T23:04:01.700Z,17.00
2022-11-19T23:09:01.372Z,19.40
2022-11-19T23:13:59.653Z,21.67
2022-11-19T23:18:57.887Z,22.40
2022-11-19T23:23:56.614Z,21.92
2022-11-19T23:28:56.323Z,26.08
2022-11-19T23:33:58.950Z,24.17
2022-11-19T23:38:57.864Z,25.20
2022-11-19T23:43:57.468Z,25.92
2022-11-19T23:48:56.346Z,26.08
2022-11-19T23:53:54.655Z,25.98
2022-11-19T23:58:53.245Z,28.13
